Time;durP1;ratioP1;P1;durP2;ratioP2;P2;SDS_P1;SDS_P2;PMS_P1;PMS_P2;Temp;Humidity;BMP_temperature;BMP_pressure;BME280_temperature;BME280_humidity;BME280_pressure;Samples;Min_cycle;Max_cycle;Signal;HPM_P1;HPM_P2
2021/01/07 00:00:48;;;;;;;;;;;;;;;16.14;59.44;100810.84;4892934;29;1060;-67
2021/01/07 00:03:14;;;;;;;;;;;;;;;16.10;59.51;100796.16;4911751;29;1246;-67
2021/01/07 00:05:41;;;;;;;;;;;;;;;16.12;59.84;100796.06;4897687;29;889;-67
2021/01/07 00:08:07;;;;;;;;;;;;;;;16.09;59.60;100789.19;4893633;29;1317;-68
2021/01/07 00:10:33;;;;;;;;;;;;;;;16.08;59.57;100799.78;4893706;29;1193;-67
2021/01/07 00:12:59;;;;;;;;;;;;;;;16.05;59.51;100795.50;4893518;29;1907;-68
2021/01/07 00:15:26;;;;;;;;;;;;;;;16.04;59.56;100792.94;4891824;29;1361;-69
2021/01/07 00:18:01;;;;;;;;;;;;;;;16.01;59.37;100788.69;4892992;29;1712;-68
2021/01/07 00:20:29;;;;;;;;;;;;;;;15.98;59.44;100782.72;4873365;29;1740;-70
2021/01/07 00:22:55;;;;;;;;;;;;;;;15.97;59.40;100781.00;4874755;29;1230;-68
2021/01/07 00:25:22;;;;;;;;;;;;;;;15.96;59.42;100784.56;4875037;29;845;-68
2021/01/07 00:27:48;;;;;;;;;;;;;;;15.96;59.31;100780.13;4874454;29;1234;-67
2021/01/07 00:30:14;;;;;;;;;;;;;;;15.94;59.53;100781.13;4857809;29;1154;-69
2021/01/07 00:32:40;;;;;;;;;;;;;;;15.92;59.32;100775.97;4874429;29;1988;-67
2021/01/07 00:35:07;;;;;;;;;;;;;;;15.91;59.11;100783.88;4874678;29;793;-67
2021/01/07 00:37:33;;;;;;;;;;;;;;;15.89;59.40;100788.38;4857706;29;1329;-67
2021/01/07 00:39:59;;;;;;;;;;;;;;;15.89;59.50;100780.50;4874503;29;761;-69
2021/01/07 00:42:25;;;;;;;;;;;;;;;15.86;59.40;100784.13;4874499;29;1277;-67
2021/01/07 00:44:53;;;;;;;;;;;;;;;15.85;59.42;100780.63;4874418;29;804;-67
2021/01/07 00:47:19;;;;;;;;;;;;;;;15.84;59.33;100778.91;4873184;29;1337;-68
2021/01/07 00:49:45;;;;;;;;;;;;;;;15.81;59.44;100771.16;4874313;29;840;-69
2021/01/07 00:52:11;;;;;;;;;;;;;;;15.80;59.44;100777.34;4873905;29;1907;-68
2021/01/07 00:54:37;;;;;;;;;;;;;;;15.78;59.30;100765.19;4874178;29;774;-68
2021/01/07 00:57:04;;;;;;;;;;;;;;;15.77;59.34;100771.38;4857301;29;1325;-68
2021/01/07 00:59:31;;;;;;;;;;;;;;;15.76;59.34;100773.16;4873967;29;851;-68
2021/01/07 01:01:57;;;;;;;;;;;;;;;15.75;59.14;100765.31;4869142;29;1725;-67
2021/01/07 01:04:23;;;;;;;;;;;;;;;15.75;59.16;100760.06;4889866;29;1862;-68
2021/01/07 01:06:49;;;;;;;;;;;;;;;15.69;59.15;100758.56;4871974;29;1768;-67
2021/01/07 01:09:16;;;;;;;;;;;;;;;15.70;59.42;100756.81;4888386;29;1837;-69
2021/01/07 01:11:46;;;;;;;;;;;;;;;15.69;59.49;100758.56;4891022;29;1768;-69
2021/01/07 01:14:18;;;;;;;;;;;;;;;15.67;59.52;100759.56;4892486;29;1907;-69
2021/01/07 01:16:48;;;;;;;;;;;;;;;15.68;59.30;100759.53;4892010;29;1341;-69
2021/01/07 01:19:15;;;;;;;;;;;;;;;15.66;59.48;100761.34;4876869;29;1130;-69
2021/01/07 01:21:42;;;;;;;;;;;;;;;15.63;59.46;100769.34;4873344;29;1206;-68
2021/01/07 01:24:08;;;;;;;;;;;;;;;15.64;59.49;100773.69;4873866;29;898;-67
2021/01/07 01:26:35;;;;;;;;;;;;;;;15.61;59.49;100773.81;4873970;29;800;-67
2021/01/07 01:29:01;;;;;;;;;;;;;;;15.63;59.52;100771.13;4875426;29;1349;-68
2021/01/07 01:31:27;;;;;;;;;;;;;;;15.62;59.56;100764.19;4875088;29;849;-67
2021/01/07 01:33:54;;;;;;;;;;;;;;;15.58;59.48;100771.31;4874073;29;1907;-67
2021/01/07 01:36:24;;;;;;;;;;;;;;;15.59;59.46;100770.41;4858205;29;1058;-67
2021/01/07 01:38:50;;;;;;;;;;;;;;;15.55;59.73;100773.22;4875427;29;1291;-67
2021/01/07 01:41:16;;;;;;;;;;;;;;;15.53;59.52;100775.94;4875030;29;1090;-67
2021/01/07 01:43:42;;;;;;;;;;;;;;;15.55;59.69;100767.97;4874849;29;1497;-66
2021/01/07 01:46:09;;;;;;;;;;;;;;;15.56;59.51;100767.06;4878333;29;1460;-66
2021/01/07 01:48:35;;;;;;;;;;;;;;;15.54;59.47;100769.75;4872474;29;1653;-67
2021/01/07 01:51:01;;;;;;;;;;;;;;;15.52;59.53;100773.38;4878649;29;793;-67
2021/01/07 01:53:28;;;;;;;;;;;;;;;15.52;59.61;100776.84;4878921;29;1907;-67
2021/01/07 01:55:54;;;;;;;;;;;;;;;15.51;59.52;100780.38;4878625;29;839;-68
2021/01/07 01:58:20;;;;;;;;;;;;;;;15.51;59.53;100777.75;4878953;29;1270;-67
2021/01/07 02:00:46;;;;;;;;;;;;;;;15.47;59.63;100778.78;4878518;29;777;-68
2021/01/07 02:03:13;;;;;;;;;;;;;;;15.48;59.75;100772.63;4878717;29;1239;-68
2021/01/07 02:05:39;;;;;;;;;;;;;;;15.47;59.49;100776.16;4878390;29;825;-68
2021/01/07 02:08:09;;;;;;;;;;;;;;;15.45;59.88;100762.22;4878584;29;1325;-68
2021/01/07 02:10:36;;;;;;;;;;;;;;;15.45;59.62;100770.09;4878627;29;782;-66
2021/01/07 02:13:03;;;;;;;;;;;;;;;15.45;59.92;100767.47;4878151;29;1988;-67
2021/01/07 02:15:29;;;;;;;;;;;;;;;15.43;59.71;100764.09;4878456;29;856;-66
2021/01/07 02:17:56;;;;;;;;;;;;;;;15.40;59.74;100760.72;4878694;29;1681;-68
2021/01/07 02:20:24;;;;;;;;;;;;;;;15.41;59.64;100765.91;4878219;29;690;-68
2021/01/07 02:22:51;;;;;;;;;;;;;;;15.42;59.42;100762.38;4876688;29;1564;-67
2021/01/07 02:25:26;;;;;;;;;;;;;;;15.42;59.64;100758.88;4878168;29;1144;-67
2021/01/07 02:27:53;;;;;;;;;;;;;;;15.38;59.74;100758.16;4892222;29;1328;-67
2021/01/07 02:30:19;;;;;;;;;;;;;;;15.38;59.77;100752.91;4878300;29;801;-69
2021/01/07 02:32:46;;;;;;;;;;;;;;;15.36;59.78;100760.00;4877953;29;1972;-67
2021/01/07 02:35:13;;;;;;;;;;;;;;;15.35;59.67;100753.03;4877956;29;1181;-67
2021/01/07 02:37:42;;;;;;;;;;;;;;;15.27;59.66;100742.03;4876601;29;1345;-67
2021/01/07 02:40:10;;;;;;;;;;;;;;;15.34;59.83;100743.47;4878350;29;808;-67
2021/01/07 02:42:36;;;;;;;;;;;;;;;15.31;59.66;100744.47;4877943;29;1333;-66
2021/01/07 02:45:04;;;;;;;;;;;;;;;15.31;59.65;100748.84;4876486;29;923;-66
2021/01/07 02:47:30;;;;;;;;;;;;;;;15.30;59.52;100747.13;4877668;29;1203;-67
2021/01/07 02:49:56;;;;;;;;;;;;;;;15.32;59.65;100747.91;4877929;29;1090;-68
2021/01/07 02:52:22;;;;;;;;;;;;;;;15.29;59.75;100741.03;4877846;29;1907;-66
2021/01/07 02:54:48;;;;;;;;;;;;;;;15.29;59.46;100737.56;4877506;29;845;-69
2021/01/07 02:57:15;;;;;;;;;;;;;;;15.28;59.53;100739.34;4877642;29;1262;-68
2021/01/07 02:59:41;;;;;;;;;;;;;;;15.25;59.72;100728.97;4860791;29;1164;-69
2021/01/07 03:02:07;;;;;;;;;;;;;;;15.25;59.73;100728.97;4877502;29;1230;-69
2021/01/07 03:04:33;;;;;;;;;;;;;;;15.26;59.56;100724.56;4877474;29;817;-69
2021/01/07 03:07:00;;;;;;;;;;;;;;;15.23;59.65;100719.44;4875922;29;1640;-68
2021/01/07 03:09:26;;;;;;;;;;;;;;;15.24;59.82;100726.41;4877576;29;753;-68
2021/01/07 03:11:52;;;;;;;;;;;;;;;15.23;59.62;100719.44;4877064;29;1332;-68
2021/01/07 03:14:18;;;;;;;;;;;;;;;15.21;59.71;100722.16;4877714;29;1984;-68
2021/01/07 03:16:45;;;;;;;;;;;;;;;15.19;59.79;100717.88;4877250;29;1239;-68
2021/01/07 03:19:11;;;;;;;;;;;;;;;15.17;59.81;100719.69;4892139;29;1526;-68
2021/01/07 03:21:41;;;;;;;;;;;;;;;15.21;59.71;100721.28;4895833;29;788;-67
2021/01/07 03:24:08;;;;;;;;;;;;;;;15.17;59.62;100717.06;4896033;29;900;-67
2021/01/07 03:26:35;;;;;;;;;;;;;;;15.16;59.61;100715.38;4895716;29;1030;-67
2021/01/07 03:29:02;;;;;;;;;;;;;;;15.14;59.85;100718.06;4896182;29;1277;-69
2021/01/07 03:31:29;;;;;;;;;;;;;;;15.15;59.84;100721.53;4895708;29;1109;-69
2021/01/07 03:33:55;;;;;;;;;;;;;;;15.14;60.01;100719.84;4895989;29;1911;-68
2021/01/07 03:36:21;;;;;;;;;;;;;;;15.12;59.73;100719.06;4895569;29;820;-68
2021/01/07 03:38:47;;;;;;;;;;;;;;;15.14;59.76;100717.22;4895912;29;1250;-68
2021/01/07 03:41:14;;;;;;;;;;;;;;;15.13;59.65;100718.16;4895543;29;792;-68
2021/01/07 03:43:40;;;;;;;;;;;;;;;15.14;59.79;100714.59;4895841;29;1218;-68
2021/01/07 03:46:06;;;;;;;;;;;;;;;15.11;59.69;100712.94;4895792;29;1023;-68
2021/01/07 03:48:32;;;;;;;;;;;;;;;15.10;59.72;100713.03;4895243;29;1230;-68
2021/01/07 03:50:58;;;;;;;;;;;;;;;15.07;59.75;100710.53;4895306;29;989;-70
2021/01/07 03:53:25;;;;;;;;;;;;;;;15.09;59.99;100704.28;4895624;29;1985;-69
2021/01/07 03:55:51;;;;;;;;;;;;;;;15.08;59.63;100705.19;4895555;29;1070;-69
2021/01/07 03:58:17;;;;;;;;;;;;;;;15.07;60.05;100698.28;4895495;29;1155;-69
2021/01/07 04:00:43;;;;;;;;;;;;;;;15.08;59.80;100704.34;4895156;29;818;-68
2021/01/07 04:03:10;;;;;;;;;;;;;;;15.05;59.80;100701.84;4895177;29;1230;-68
2021/01/07 04:05:37;;;;;;;;;;;;;;;15.08;59.84;100701.72;4895113;29;843;-70
2021/01/07 04:08:03;;;;;;;;;;;;;;;15.03;60.07;100701.94;4894706;29;1320;-68
2021/01/07 04:10:29;;;;;;;;;;;;;;;15.03;59.83;100701.94;4894935;29;801;-68
2021/01/07 04:12:55;;;;;;;;;;;;;;;15.01;60.06;100695.06;4895202;29;1919;-67
2021/01/07 04:15:22;;;;;;;;;;;;;;;15.02;60.02;100686.25;4894936;29;843;-69
2021/01/07 04:17:48;;;;;;;;;;;;;;;15.02;59.97;100688.88;4859256;29;1413;-69
2021/01/07 04:20:15;;;;;;;;;;;;;;;15.00;59.91;100683.69;4876203;29;891;-69
2021/01/07 04:22:41;;;;;;;;;;;;;;;15.02;60.16;100678.38;4876281;29;1214;-68
2021/01/07 04:25:08;;;;;;;;;;;;;;;14.99;59.89;100678.50;4876151;29;1149;-68
2021/01/07 04:27:34;;;;;;;;;;;;;;;14.96;59.98;100676.88;4890627;29;1329;-68
2021/01/07 04:30:00;;;;;;;;;;;;;;;14.94;60.21;100680.47;4876566;29;800;-68
2021/01/07 04:32:31;;;;;;;;;;;;;;;14.93;59.91;100673.50;4874902;29;1903;-69
2021/01/07 04:34:57;;;;;;;;;;;;;;;14.88;60.03;100658.00;4876406;29;793;-68
2021/01/07 04:37:24;;;;;;;;;;;;;;;14.94;60.10;100667.38;4876240;29;1231;-69
2021/01/07 04:39:50;;;;;;;;;;;;;;;14.92;59.98;100666.59;4875463;29;764;-68
2021/01/07 04:42:16;;;;;;;;;;;;;;;14.92;60.00;100662.19;4875783;29;1330;-67
2021/01/07 04:44:43;;;;;;;;;;;;;;;14.92;59.79;100667.44;4875818;29;812;-68
2021/01/07 04:47:11;;;;;;;;;;;;;;;14.93;59.80;100674.38;4875640;29;1307;-67
2021/01/07 04:49:42;;;;;;;;;;;;;;;14.90;59.95;100673.66;4889873;29;927;-67
2021/01/07 04:52:08;;;;;;;;;;;;;;;14.90;59.92;100674.50;4875693;29;1223;-68
2021/01/07 04:54:35;;;;;;;;;;;;;;;14.88;59.90;100678.13;4875922;29;1988;-66
2021/01/07 04:57:01;;;;;;;;;;;;;;;14.90;59.63;100668.41;4875522;29;1233;-67
2021/01/07 04:59:28;;;;;;;;;;;;;;;14.88;60.08;100671.09;4875571;29;789;-69
2021/01/07 05:01:54;;;;;;;;;;;;;;;14.88;59.99;100680.75;4889246;29;1531;-69
2021/01/07 05:04:20;;;;;;;;;;;;;;;14.86;59.83;100677.34;4875363;29;801;-68
2021/01/07 05:06:47;;;;;;;;;;;;;;;14.86;59.69;100672.09;4875286;29;1243;-68
2021/01/07 05:09:14;;;;;;;;;;;;;;;14.88;59.73;100665.84;4875324;29;777;-68
2021/01/07 05:11:42;;;;;;;;;;;;;;;14.86;59.83;100662.47;4875350;29;1227;-68
2021/01/07 05:14:10;;;;;;;;;;;;;;;14.85;59.81;100667.75;4875903;29;1976;-68
2021/01/07 05:16:36;;;;;;;;;;;;;;;14.84;59.93;100679.16;4889524;29;1333;-69
2021/01/07 05:19:07;;;;;;;;;;;;;;;14.84;59.93;100669.50;4888147;29;1604;-68
2021/01/07 05:21:34;;;;;;;;;;;;;;;14.81;59.89;100668.78;4893928;29;801;-68
2021/01/07 05:24:01;;;;;;;;;;;;;;;14.83;59.55;100673.06;4894235;29;1234;-68
2021/01/07 05:26:28;;;;;;;;;;;;;;;14.82;60.10;100675.75;4893832;29;808;-70
2021/01/07 05:28:55;;;;;;;;;;;;;;;14.81;59.63;100689.75;4894204;29;1227;-69
2021/01/07 05:31:22;;;;;;;;;;;;;;;14.77;59.97;100689.88;4893705;29;927;-69
2021/01/07 05:33:49;;;;;;;;;;;;;;;14.78;59.72;100691.59;4894092;29;1911;-69
2021/01/07 05:36:24;;;;;;;;;;;;;;;14.78;59.81;100696.00;4876786;29;1199;-69
2021/01/07 05:38:52;;;;;;;;;;;;;;;14.77;59.76;100700.38;4893195;29;1450;-69
2021/01/07 05:41:18;;;;;;;;;;;;;;;14.80;59.58;100698.56;4893587;29;859;-69
2021/01/07 05:43:45;;;;;;;;;;;;;;;14.77;59.64;100694.31;4894171;29;1349;-68
2021/01/07 05:46:12;;;;;;;;;;;;;;;14.73;59.74;100687.47;4893640;29;887;-69
2021/01/07 05:48:38;;;;;;;;;;;;;;;14.76;59.68;100675.09;4893442;29;1231;-68
2021/01/07 05:51:26;;;;;;;;;;;;;;;14.72;59.38;100678.75;4893772;29;1136;-68
2021/01/07 05:53:53;;;;;;;;;;;;;;;14.71;59.83;100684.91;4893793;29;1915;-67
2021/01/07 05:56:20;;;;;;;;;;;;;;;14.69;59.69;100672.78;4893239;29;1125;-65
2021/01/07 05:58:47;;;;;;;;;;;;;;;14.68;59.67;100673.72;4876640;29;1309;-68
2021/01/07 06:01:14;;;;;;;;;;;;;;;14.67;59.47;100675.47;4893438;29;781;-68
2021/01/07 06:03:45;;;;;;;;;;;;;;;14.69;59.82;100681.50;4894003;29;1308;-68
2021/01/07 06:06:12;;;;;;;;;;;;;;;14.67;59.46;100678.09;4893640;29;951;-67
2021/01/07 06:08:45;;;;;;;;;;;;;;;14.67;59.51;100672.84;4876540;29;1331;-69
2021/01/07 06:11:13;;;;;;;;;;;;;;;14.66;59.51;100681.63;4893335;29;1078;-69
2021/01/07 06:13:39;;;;;;;;;;;;;;;14.64;59.63;100678.22;4876661;29;1907;-69
2021/01/07 06:16:10;;;;;;;;;;;;;;;14.65;59.51;100679.09;4893427;29;805;-69
2021/01/07 06:18:36;;;;;;;;;;;;;;;14.65;59.40;100679.91;4892752;29;1483;-68
2021/01/07 06:21:02;;;;;;;;;;;;;;;14.64;59.57;100678.22;4892435;29;994;-68
2021/01/07 06:23:32;;;;;;;;;;;;;;;14.67;59.65;100682.47;4892721;29;1352;-69
2021/01/07 06:26:18;;;;;;;;;;;;;;;14.66;59.42;100681.63;4875504;29;915;-69
2021/01/07 06:28:46;;;;;;;;;;;;;;;14.61;59.31;100688.84;4820110;29;1374;-69
2021/01/07 06:31:15;;;;;;;;;;;;;;;14.63;59.55;100694.00;4894033;29;817;-69
2021/01/07 06:33:42;;;;;;;;;;;;;;;14.60;59.31;100689.75;4895703;29;1907;-67
2021/01/07 06:36:09;;;;;;;;;;;;;;;14.60;59.31;100697.59;4895853;29;879;-67
2021/01/07 06:38:35;;;;;;;;;;;;;;;14.57;59.37;100692.47;4895688;29;1345;-68
2021/01/07 06:41:01;;;;;;;;;;;;;;;14.55;59.47;100699.56;4893581;29;1616;-67
2021/01/07 06:43:29;;;;;;;;;;;;;;;14.59;59.28;100705.53;4878116;29;1464;-68
2021/01/07 06:45:56;;;;;;;;;;;;;;;14.54;59.41;100704.84;4890641;29;1251;-68
2021/01/07 06:48:23;;;;;;;;;;;;;;;14.56;59.33;100706.50;4894152;29;1250;-68
2021/01/07 06:50:56;;;;;;;;;;;;;;;14.52;59.42;100699.69;4895494;29;749;-69
2021/01/07 06:53:23;;;;;;;;;;;;;;;14.55;59.47;100704.81;4895406;29;1926;-68
2021/01/07 06:56:15;;;;;;;;;;;;;;;14.54;59.59;100705.72;4895614;29;875;-69
2021/01/07 06:58:42;;;;;;;;;;;;;;;14.54;59.49;100715.34;4890582;29;1561;-68
2021/01/07 07:01:09;;;;;;;;;;;;;;;14.55;59.31;100728.41;4877971;29;1299;-69
2021/01/07 07:03:40;;;;;;;;;;;;;;;14.52;59.31;100725.91;4895301;29;1336;-69
2021/01/07 07:06:08;;;;;;;;;;;;;;;14.53;59.68;100724.97;4894782;29;1179;-68
2021/01/07 07:08:35;;;;;;;;;;;;;;;14.52;59.50;100720.66;4895176;29;1222;-67
2021/01/07 07:11:08;;;;;;;;;;;;;;;14.55;59.03;100723.16;4895086;29;883;-69
2021/01/07 07:13:39;;;;;;;;;;;;;;;14.50;59.18;100719.03;4894487;29;1915;-69
2021/01/07 07:16:06;;;;;;;;;;;;;;;14.53;58.94;100721.53;4894810;29;1149;-68
2021/01/07 07:18:34;;;;;;;;;;;;;;;14.51;59.12;100718.94;4869785;29;751618;-67
2021/01/07 07:21:13;;;;;;;;;;;;;;;14.49;59.21;100712.91;4894291;29;856;-69
2021/01/07 07:23:43;;;;;;;;;;;;;;;14.46;59.08;100705.19;4896111;29;1395;-69
2021/01/07 07:26:31;;;;;;;;;;;;;;;14.42;59.01;100713.22;4886231;29;974;-69
2021/01/07 07:28:57;;;;;;;;;;;;;;;14.42;59.07;100708.81;4880885;29;1273;-69
2021/01/07 07:31:37;;;;;;;;;;;;;;;14.45;59.00;100706.06;4877827;29;1052;-69
2021/01/07 07:34:03;;;;;;;;;;;;;;;14.44;59.32;100711.41;4860177;29;1915;-69
2021/01/07 07:36:31;;;;;;;;;;;;;;;14.41;59.06;100717.59;4876599;29;1146;-69
2021/01/07 07:38:57;;;;;;;;;;;;;;;14.44;59.36;100725.34;4889868;29;1531;-66
2021/01/07 07:41:26;;;;;;;;;;;;;;;14.41;59.06;100725.44;4890014;29;878;-67
2021/01/07 07:43:53;;;;;;;;;;;;;;;14.41;59.25;100729.88;4876323;29;1321;-67
2021/01/07 07:46:22;;;;;;;;;;;;;;;14.41;59.00;100717.59;4885663;29;1066;-68
2021/01/07 07:48:56;;;;;;;;;;;;;;;14.41;59.04;100728.06;4895675;29;1333;-67
2021/01/07 07:51:22;;;;;;;;;;;;;;;14.39;59.08;100723.81;4894515;29;989;-66
2021/01/07 07:53:48;;;;;;;;;;;;;;;14.39;59.16;100724.66;4895639;29;1919;-69
2021/01/07 07:56:21;;;;;;;;;;;;;;;14.38;59.31;100722.94;4886139;29;1222;-68
2021/01/07 07:58:48;;;;;;;;;;;;;;;14.37;58.95;100721.25;4876246;29;1232;-68
2021/01/07 08:01:14;;;;;;;;;;;;;;;14.37;59.05;100721.25;4884739;29;1171;-68
2021/01/07 08:03:40;;;;;;;;;;;;;;;14.35;59.27;100719.63;4895123;29;1215;-68
2021/01/07 08:06:07;;;;;;;;;;;;;;;14.37;58.72;100723.88;4893180;29;1046;-67
2021/01/07 08:08:33;;;;;;;;;;;;;;;14.35;58.92;100728.31;4894973;29;1229;-68
2021/01/07 08:11:00;;;;;;;;;;;;;;;14.34;59.29;100726.63;4893189;29;1012;-67
2021/01/07 08:13:29;;;;;;;;;;;;;;;14.35;58.99;100724.88;4894733;29;1923;-67
2021/01/07 08:16:01;;;;;;;;;;;;;;;14.34;59.14;100731.88;4887351;29;1397;-68
2021/01/07 08:18:28;;;;;;;;;;;;;;;14.33;58.92;100729.28;4890289;29;1551;-68
2021/01/07 08:20:55;;;;;;;;;;;;;;;14.31;59.01;100731.09;4874757;29;896;-67
2021/01/07 08:23:22;;;;;;;;;;;;;;;14.33;58.98;100737.16;4876172;29;1226;-69
2021/01/07 08:25:52;;;;;;;;;;;;;;;14.31;58.97;100742.44;4876034;29;973;-68
2021/01/07 08:28:18;;;;;;;;;;;;;;;14.32;58.86;100735.44;4875795;29;1231;-66
2021/01/07 08:30:50;;;;;;;;;;;;;;;14.29;58.75;100744.25;4875499;29;1035;-68
2021/01/07 08:33:18;;;;;;;;;;;;;;;14.31;59.06;100746.81;4875601;29;1988;-68
2021/01/07 08:35:45;;;;;;;;;;;;;;;14.29;58.90;100749.47;4889936;29;1118;-69
2021/01/07 08:38:28;;;;;;;;;;;;;;;14.31;58.65;100757.28;4875984;29;1230;-68
2021/01/07 08:41:09;;;;;;;;;;;;;;;14.30;58.84;100760.81;4875197;29;1047;-69
2021/01/07 08:43:36;;;;;;;;;;;;;;;14.31;58.87;100767.78;4873998;29;1340;-68
2021/01/07 08:46:15;;;;;;;;;;;;;;;14.30;58.87;100766.91;4889509;29;1200;-68
2021/01/07 08:48:41;;;;;;;;;;;;;;;14.27;59.07;100767.03;4875693;29;1184;-68
2021/01/07 08:51:15;;;;;;;;;;;;;;;14.25;59.15;100776.72;4875249;29;1064;-68
2021/01/07 08:53:48;;;;;;;;;;;;;;;14.25;58.84;100779.34;4875382;29;1907;-68
2021/01/07 08:56:33;;;;;;;;;;;;;;;14.26;58.84;100786.28;4875155;29;1095;-68
2021/01/07 08:59:19;;;;;;;;;;;;;;;14.28;58.65;100787.09;4875570;29;1325;-67
2021/01/07 09:01:45;;;;;;;;;;;;;;;14.19;55.41;100795.31;4874618;29;1282;-68
2021/01/07 09:04:22;;;;;;;;;;;;;;;14.22;58.62;100787.31;4875142;29;773;-67
2021/01/07 09:06:54;;;;;;;;;;;;;;;14.31;58.68;100786.97;4874815;29;1258;-68
2021/01/07 09:09:20;;;;;;;;;;;;;;;14.39;59.23;100782.31;4875020;29;821;-70
2021/01/07 09:11:47;;;;;;;;;;;;;;;14.47;59.31;100789.91;4887899;29;1220;-69
2021/01/07 09:14:13;;;;;;;;;;;;;;;14.57;59.37;100786.00;4893514;29;1917;-69
2021/01/07 09:16:39;;;;;;;;;;;;;;;14.67;58.81;100782.97;4893390;29;1085;-68
2021/01/07 09:19:09;;;;;;;;;;;;;;;14.90;59.05;100782.03;4893683;29;1302;-68
2021/01/07 09:21:37;;;;;;;;;;;;;;;15.06;58.43;100795.41;4893412;29;1009;-67
2021/01/07 09:24:04;;;;;;;;;;;;;;;15.18;58.33;100787.88;4892760;29;1552;-68
2021/01/07 09:26:31;;;;;;;;;;;;;;;15.29;58.17;100790.91;4883619;29;890;-67
2021/01/07 09:28:57;;;;;;;;;;;;;;;15.47;57.65;100783.19;4874816;29;1320;-68
2021/01/07 09:31:23;;;;;;;;;;;;;;;15.61;57.01;100781.69;4872781;29;981;-69
2021/01/07 09:33:49;;;;;;;;;;;;;;;15.73;56.99;100778.53;4874679;29;1986;-68
2021/01/07 09:36:16;;;;;;;;;;;;;;;15.79;56.86;100783.53;4876604;29;1437;-68
2021/01/07 09:38:42;;;;;;;;;;;;;;;15.85;56.96;100783.25;4893756;29;1298;-69
2021/01/07 09:41:08;;;;;;;;;;;;;;;15.93;56.76;100787.31;4891820;29;1063;-69
2021/01/07 09:43:35;;;;;;;;;;;;;;;15.98;56.72;100791.44;4892076;29;1183;-68
2021/01/07 09:46:02;;;;;;;;;;;;;;;15.99;56.38;100784.44;4893664;29;989;-68
2021/01/07 09:48:28;;;;;;;;;;;;;;;16.08;56.61;100782.22;4893726;29;1296;-69
2021/01/07 09:50:56;;;;;;;;;;;;;;;16.18;56.48;100785.28;4876647;29;1153;-69
2021/01/07 09:53:22;;;;;;;;;;;;;;;16.33;56.24;100779.31;4893607;29;1998;-67
2021/01/07 09:55:49;;;;;;;;;;;;;;;16.37;56.20;100775.63;4893254;29;997;-68
2021/01/07 09:58:16;;;;;;;;;;;;;;;16.41;56.24;100779.84;4893179;29;1292;-70
2021/01/07 10:00:44;;;;;;;;;;;;;;;16.44;55.98;100781.47;4893451;29;1001;-70
2021/01/07 10:03:10;;;;;;;;;;;;;;;16.50;55.98;100778.53;4893600;29;1230;-70
2021/01/07 10:05:36;;;;;;;;;;;;;;;16.47;55.95;100776.91;4894733;29;1059;-71
2021/01/07 10:08:03;;;;;;;;;;;;;;;16.45;56.11;100770.84;4896940;29;1305;-69
2021/01/07 10:10:29;;;;;;;;;;;;;;;16.47;55.83;100766.41;4896604;29;1036;-70
2021/01/07 10:12:55;;;;;;;;;;;;;;;16.46;55.98;100767.31;4879947;29;1339;-68
2021/01/07 10:15:21;;;;;;;;;;;;;;;16.59;55.43;100770.25;4896554;29;1976;-67
2021/01/07 10:17:47;;;;;;;;;;;;;;;16.59;55.40;100780.78;4896444;29;1459;-69
2021/01/07 10:20:14;;;;;;;;;;;;;;;16.65;55.48;100769.97;4896457;29;1036;-68
2021/01/07 10:22:40;;;;;;;;;;;;;;;16.71;55.01;100773.16;4879654;29;1235;-73
2021/01/07 10:25:07;;;;;;;;;;;;;;;16.76;54.96;100773.78;4896855;29;824;-69
2021/01/07 10:27:34;;;;;;;;;;;;;;;16.83;54.84;100769.94;4895329;29;1269;-69
2021/01/07 10:30:01;;;;;;;;;;;;;;;16.76;54.64;100768.53;4896866;29;833;-69
2021/01/07 10:32:33;;;;;;;;;;;;;;;16.47;54.16;100757.66;4897012;29;1388;-69
2021/01/07 10:35:00;;;;;;;;;;;;;;;16.69;53.69;100751.31;4896975;29;1907;-70
2021/01/07 10:37:27;;;;;;;;;;;;;;;16.83;53.31;100751.53;4896386;29;1266;-67
2021/01/07 10:39:53;;;;;;;;;;;;;;;16.92;52.80;100747.59;4879485;29;1305;-66
2021/01/07 10:42:21;;;;;;;;;;;;;;;16.92;52.68;100737.91;4895820;29;1372;-67
2021/01/07 10:44:48;;;;;;;;;;;;;;;16.98;52.73;100736.75;4896642;29;812;-66
2021/01/07 10:47:15;;;;;;;;;;;;;;;16.97;53.10;100734.19;4896226;29;1425;-65
2021/01/07 10:49:42;;;;;;;;;;;;;;;17.02;52.86;100729.56;4896780;29;836;-64
2021/01/07 10:52:10;;;;;;;;;;;;;;;17.07;52.78;100714.38;4879022;29;1266;-68
2021/01/07 10:54:45;;;;;;;;;;;;;;;17.13;52.15;100717.56;4896106;29;1911;-65
2021/01/07 10:57:11;;;;;;;;;;;;;;;17.04;52.61;100709.28;4896098;29;1290;-64
2021/01/07 10:59:55;;;;;;;;;;;;;;;17.04;52.46;100709.28;4896059;29;785;-68
2021/01/07 11:02:39;;;;;;;;;;;;;;;17.04;52.38;100710.13;4895764;29;1432;-68
2021/01/07 11:05:38;;;;;;;;;;;;;;;17.06;52.20;100707.41;4896052;29;769;-67
2021/01/07 11:08:14;;;;;;;;;;;;;;;17.07;52.08;100704.72;4864126;29;1318;-65
2021/01/07 11:10:46;;;;;;;;;;;;;;;17.08;52.20;100698.53;4895713;29;997;-68
2021/01/07 11:13:12;;;;;;;;;;;;;;;17.10;52.00;100688.75;4896005;29;1982;-66
2021/01/07 11:15:41;;;;;;;;;;;;;;;17.13;51.95;100690.38;4895667;29;1048;-67
2021/01/07 11:18:11;;;;;;;;;;;;;;;17.18;51.52;100685.72;4894629;29;1348;-65
2021/01/07 11:20:40;;;;;;;;;;;;;;;17.16;51.79;100683.19;4895927;29;1810;-64
2021/01/07 11:23:08;;;;;;;;;;;;;;;17.16;51.63;100691.09;4895970;29;1337;-65
2021/01/07 11:25:34;;;;;;;;;;;;;;;17.30;51.53;100678.06;4895676;29;1060;-68
2021/01/07 11:28:01;;;;;;;;;;;;;;;17.24;52.02;100665.22;4895660;29;1317;-66
2021/01/07 11:30:28;;;;;;;;;;;;;;;17.27;52.26;100656.28;4894910;29;1032;-68
2021/01/07 11:32:55;;;;;;;;;;;;;;;17.29;52.09;100657.94;4895873;29;1339;-68
2021/01/07 11:35:21;;;;;;;;;;;;;;;17.43;51.76;100654.56;4895606;29;1907;-69
2021/01/07 11:38:10;;;;;;;;;;;;;;;17.36;52.03;100654.03;4893699;29;1555;-66
2021/01/07 11:40:56;;;;;;;;;;;;;;;17.33;53.29;100659.47;4891507;29;933;-69
2021/01/07 11:43:41;;;;;;;;;;;;;;;16.99;53.36;100656.88;4876897;29;1219;-69
2021/01/07 11:46:11;;;;;;;;;;;;;;;16.90;53.61;100650.28;4887130;29;1013;-69
2021/01/07 11:48:39;;;;;;;;;;;;;;;16.88;53.64;100648.66;4875322;29;1247;-69
2021/01/07 11:51:07;;;;;;;;;;;;;;;16.86;53.78;100640.88;4876356;29;1000;-69
2021/01/07 11:53:33;;;;;;;;;;;;;;;16.86;53.94;100635.59;4876589;29;1978;-70
2021/01/07 11:56:01;;;;;;;;;;;;;;;16.85;53.98;100626.00;4876710;29;1024;-68
2021/01/07 11:58:27;;;;;;;;;;;;;;;16.84;53.86;100620.84;4885636;29;1316;-69
2021/01/07 12:00:56;;;;;;;;;;;;;;;16.85;54.16;100625.16;4894500;29;1127;-69
2021/01/07 12:03:29;;;;;;;;;;;;;;;16.84;54.12;100616.41;4895123;29;1250;-69
2021/01/07 12:06:06;;;;;;;;;;;;;;;16.84;54.12;100608.50;4888692;29;1066;-68
2021/01/07 12:08:52;;;;;;;;;;;;;;;16.84;54.02;100608.50;4876412;29;1246;-69
2021/01/07 12:11:21;;;;;;;;;;;;;;;16.84;54.20;100613.75;4885090;29;1065;-68
2021/01/07 12:14:05;;;;;;;;;;;;;;;16.84;54.25;100605.88;4895149;29;1911;-68
2021/01/07 12:16:36;;;;;;;;;;;;;;;16.85;54.28;100597.06;4894763;29;993;-69
2021/01/07 12:19:03;;;;;;;;;;;;;;;16.84;54.25;100608.50;4894715;29;1374;-69
2021/01/07 12:21:29;;;;;;;;;;;;;;;16.85;54.17;100597.06;4882598;29;1176;-69
2021/01/07 12:23:56;;;;;;;;;;;;;;;16.80;54.25;100591.19;4876111;29;1218;-70
2021/01/07 12:26:22;;;;;;;;;;;;;;;16.87;54.02;100599.63;4875833;29;1133;-69
2021/01/07 12:28:50;;;;;;;;;;;;;;;16.87;54.18;100578.59;4875587;29;1231;-70
2021/01/07 12:31:17;;;;;;;;;;;;;;;16.86;54.20;100563.72;4875386;29;973;-70
2021/01/07 12:34:13;;;;;;;;;;;;;;;16.86;54.17;100566.34;4858857;29;1919;-69
2021/01/07 12:36:49;;;;;;;;;;;;;;;16.87;54.49;100566.25;4854679;29;1037;-70
2021/01/07 12:39:24;;;;;;;;;;;;;;;16.87;54.35;100562.81;4875529;29;797;-69
2021/01/07 12:41:52;;;;;;;;;;;;;;;16.87;54.32;100560.16;4888727;29;1427;-68
2021/01/07 12:44:20;;;;;;;;;;;;;;;16.88;54.46;100565.34;4877381;29;784;-68
2021/01/07 12:46:47;;;;;;;;;;;;;;;16.88;54.51;100567.97;4893819;29;1336;-69
2021/01/07 12:49:14;;;;;;;;;;;;;;;16.88;54.53;100557.44;4894271;29;1166;-68
2021/01/07 12:51:40;;;;;;;;;;;;;;;16.88;54.39;100549.53;4893918;29;1191;-68
2021/01/07 12:54:07;;;;;;;;;;;;;;;16.89;54.32;100551.25;4892394;29;1970;-67
2021/01/07 12:56:40;;;;;;;;;;;;;;;16.88;54.42;100544.28;4894000;29;1001;-68